Schedule Details


Flight Number: CTN475
Departure: Charles-de-gaulle (LFPG) at 12:05
Arrival: Kastela (LDSP) at 14:05
Route: LANVI UN491 EPL N491 LASAT UN491 BEGAR UQ341 RESIA T415 LISKO M730 TORPO

Weather Information
LFPG 242130Z 02008KT 010V100 CAVOK 24/19 Q1015 NOSIG
LDSP 242130Z AUTO 27005KT 220V330 CAVOK 26/15 Q1017
Schedule Frequency

Route Map